sensor_id;sensor_type;location;lat;lon;timestamp;pressure;altitude;pressure_sealevel;temperature;humidity
21111;BME280;10713;51.912;4.494;2022-09-09T00:01:27;100704.09;;;16.32;100.00
21111;BME280;10713;51.912;4.494;2022-09-09T00:09:31;100695.47;;;16.29;100.00
21111;BME280;10713;51.912;4.494;2022-09-09T00:12:06;100690.34;;;16.26;100.00
21111;BME280;10713;51.912;4.494;2022-09-09T00:14:54;100685.75;;;16.28;100.00
21111;BME280;10713;51.912;4.494;2022-09-09T00:17:31;100685.22;;;16.23;100.00
21111;BME280;10713;51.912;4.494;2022-09-09T00:22:55;100681.66;;;15.95;100.00
21111;BME280;10713;51.912;4.494;2022-09-09T00:25:31;100690.03;;;15.89;100.00
21111;BME280;10713;51.912;4.494;2022-09-09T00:27:59;100681.56;;;15.82;100.00
21111;BME280;10713;51.912;4.494;2022-09-09T00:30:28;100685.66;;;15.88;100.00
21111;BME280;10713;51.912;4.494;2022-09-09T00:33:02;100674.16;;;15.87;100.00
21111;BME280;10713;51.912;4.494;2022-09-09T00:35:38;100671.31;;;15.90;100.00
21111;BME280;10713;51.912;4.494;2022-09-09T00:38:19;100670.91;;;15.96;100.00
21111;BME280;10713;51.912;4.494;2022-09-09T00:40:55;100678.34;;;15.91;100.00
21111;BME280;10713;51.912;4.494;2022-09-09T00:43:27;100677.38;;;15.92;100.00
21111;BME280;10713;51.912;4.494;2022-09-09T00:56:37;100662.38;;;16.18;100.00
21111;BME280;10713;51.912;4.494;2022-09-09T01:01:35;100664.03;;;16.34;100.00
21111;BME280;10713;51.912;4.494;2022-09-09T01:04:05;100671.44;;;16.43;100.00
21111;BME280;10713;51.912;4.494;2022-09-09T01:06:36;100658.69;;;16.34;100.00
21111;BME280;10713;51.912;4.494;2022-09-09T01:09:26;100653.19;;;16.37;100.00
21111;BME280;10713;51.912;4.494;2022-09-09T01:28:24;100637.78;;;16.28;100.00
21111;BME280;10713;51.912;4.494;2022-09-09T01:30:50;100640.16;;;16.32;100.00
21111;BME280;10713;51.912;4.494;2022-09-09T01:33:17;100643.59;;;16.34;100.00
21111;BME280;10713;51.912;4.494;2022-09-09T01:38:17;100634.19;;;16.29;100.00
21111;BME280;10713;51.912;4.494;2022-09-09T01:40:43;100633.53;;;16.25;100.00
21111;BME280;10713;51.912;4.494;2022-09-09T01:43:09;100631.75;;;16.26;100.00
21111;BME280;10713;51.912;4.494;2022-09-09T01:45:35;100633.66;;;16.24;100.00
21111;BME280;10713;51.912;4.494;2022-09-09T01:48:00;100634.06;;;16.17;100.00
21111;BME280;10713;51.912;4.494;2022-09-09T01:50:27;100631.38;;;16.17;100.00
21111;BME280;10713;51.912;4.494;2022-09-09T01:52:56;100626.78;;;16.19;100.00
21111;BME280;10713;51.912;4.494;2022-09-09T01:55:32;100623.84;;;15.97;100.00
21111;BME280;10713;51.912;4.494;2022-09-09T02:00:23;100628.47;;;16.08;100.00
21111;BME280;10713;51.912;4.494;2022-09-09T02:03:05;100630.88;;;15.98;100.00
21111;BME280;10713;51.912;4.494;2022-09-09T02:05:37;100621.41;;;15.94;100.00
21111;BME280;10713;51.912;4.494;2022-09-09T02:08:08;100630.97;;;15.96;100.00
21111;BME280;10713;51.912;4.494;2022-09-09T02:10:51;100620.31;;;15.96;100.00
21111;BME280;10713;51.912;4.494;2022-09-09T02:13:21;100627.13;;;16.15;100.00
21111;BME280;10713;51.912;4.494;2022-09-09T02:15:55;100618.63;;;16.23;100.00
21111;BME280;10713;51.912;4.494;2022-09-09T02:18:38;100611.16;;;16.28;100.00
21111;BME280;10713;51.912;4.494;2022-09-09T02:21:06;100605.63;;;16.31;100.00
21111;BME280;10713;51.912;4.494;2022-09-09T02:23:32;100610.88;;;16.32;100.00
21111;BME280;10713;51.912;4.494;2022-09-09T02:25:59;100610.88;;;16.32;100.00
21111;BME280;10713;51.912;4.494;2022-09-09T02:28:27;100599.78;;;16.38;100.00
21111;BME280;10713;51.912;4.494;2022-09-09T02:30:53;100595.31;;;16.39;100.00
21111;BME280;10713;51.912;4.494;2022-09-09T02:33:24;100585.34;;;16.42;100.00
21111;BME280;10713;51.912;4.494;2022-09-09T02:35:50;100590.84;;;16.39;100.00
21111;BME280;10713;51.912;4.494;2022-09-09T02:38:17;100588.41;;;16.49;100.00
21111;BME280;10713;51.912;4.494;2022-09-09T02:40:42;100582.13;;;16.50;100.00
21111;BME280;10713;51.912;4.494;2022-09-09T02:43:08;100585.75;;;16.49;100.00
21111;BME280;10713;51.912;4.494;2022-09-09T02:45:42;100576.78;;;16.50;100.00
21111;BME280;10713;51.912;4.494;2022-09-09T02:53:29;100592.34;;;16.43;100.00
21111;BME280;10713;51.912;4.494;2022-09-09T02:56:04;100589.34;;;16.48;100.00
21111;BME280;10713;51.912;4.494;2022-09-09T02:58:31;100583.41;;;16.44;100.00
21111;BME280;10713;51.912;4.494;2022-09-09T03:00:56;100575.72;;;16.53;100.00
21111;BME280;10713;51.912;4.494;2022-09-09T03:03:23;100573.91;;;16.53;100.00
21111;BME280;10713;51.912;4.494;2022-09-09T03:05:49;100575.94;;;16.37;100.00
21111;BME280;10713;51.912;4.494;2022-09-09T03:08:15;100572.19;;;16.27;100.00
21111;BME280;10713;51.912;4.494;2022-09-09T03:10:40;100579.13;;;16.29;100.00
21111;BME280;10713;51.912;4.494;2022-09-09T03:13:06;100564.41;;;16.24;100.00
21111;BME280;10713;51.912;4.494;2022-09-09T03:15:33;100576.75;;;16.25;100.00
21111;BME280;10713;51.912;4.494;2022-09-09T03:18:00;100568.53;;;16.28;100.00
21111;BME280;10713;51.912;4.494;2022-09-09T03:20:27;100574.63;;;16.30;100.00
21111;BME280;10713;51.912;4.494;2022-09-09T03:22:53;100566.84;;;16.27;100.00
21111;BME280;10713;51.912;4.494;2022-09-09T03:25:19;100572.94;;;16.29;100.00
21111;BME280;10713;51.912;4.494;2022-09-09T03:27:44;100564.94;;;16.29;100.00
21111;BME280;10713;51.912;4.494;2022-09-09T03:30:10;100561.94;;;16.20;100.00
21111;BME280;10713;51.912;4.494;2022-09-09T03:32:36;100563.56;;;16.23;100.00
21111;BME280;10713;51.912;4.494;2022-09-09T03:35:02;100561.38;;;16.15;100.00
21111;BME280;10713;51.912;4.494;2022-09-09T03:37:27;100560.97;;;16.09;100.00
21111;BME280;10713;51.912;4.494;2022-09-09T03:39:52;100566.00;;;16.26;100.00
21111;BME280;10713;51.912;4.494;2022-09-09T03:42:20;100563.22;;;16.15;100.00
21111;BME280;10713;51.912;4.494;2022-09-09T03:44:46;100561.59;;;16.12;100.00
21111;BME280;10713;51.912;4.494;2022-09-09T03:47:24;100570.66;;;16.10;100.00
21111;BME280;10713;51.912;4.494;2022-09-09T03:49:50;100567.44;;;16.05;100.00
21111;BME280;10713;51.912;4.494;2022-09-09T03:52:15;100565.94;;;16.01;100.00
21111;BME280;10713;51.912;4.494;2022-09-09T03:54:41;100576.25;;;16.05;100.00
21111;BME280;10713;51.912;4.494;2022-09-09T03:57:08;100561.88;;;15.95;100.00
21111;BME280;10713;51.912;4.494;2022-09-09T03:59:34;100566.78;;;16.01;100.00
21111;BME280;10713;51.912;4.494;2022-09-09T04:02:00;100558.59;;;16.04;100.00
21111;BME280;10713;51.912;4.494;2022-09-09T04:04:25;100553.19;;;16.06;100.00
21111;BME280;10713;51.912;4.494;2022-09-09T04:06:53;100552.50;;;16.02;100.00
21111;BME280;10713;51.912;4.494;2022-09-09T04:09:19;100558.03;;;15.99;100.00
21111;BME280;10713;51.912;4.494;2022-09-09T04:11:44;100556.25;;;15.99;100.00
21111;BME280;10713;51.912;4.494;2022-09-09T04:14:11;100546.66;;;15.97;100.00
21111;BME280;10713;51.912;4.494;2022-09-09T04:16:37;100547.38;;;15.99;100.00
21111;BME280;10713;51.912;4.494;2022-09-09T04:19:04;100542.38;;;15.94;100.00
21111;BME280;10713;51.912;4.494;2022-09-09T04:21:30;100533.66;;;15.92;100.00
21111;BME280;10713;51.912;4.494;2022-09-09T04:23:56;100541.91;;;15.88;100.00
21111;BME280;10713;51.912;4.494;2022-09-09T04:26:22;100550.03;;;15.86;100.00
21111;BME280;10713;51.912;4.494;2022-09-09T04:28:47;100534.91;;;15.87;100.00
21111;BME280;10713;51.912;4.494;2022-09-09T04:31:19;100527.13;;;15.84;100.00
21111;BME280;10713;51.912;4.494;2022-09-09T04:33:46;100528.47;;;15.76;100.00
21111;BME280;10713;51.912;4.494;2022-09-09T04:36:13;100529.22;;;15.79;100.00
21111;BME280;10713;51.912;4.494;2022-09-09T04:38:38;100525.06;;;15.74;100.00
21111;BME280;10713;51.912;4.494;2022-09-09T04:41:04;100528.47;;;15.76;100.00
21111;BME280;10713;51.912;4.494;2022-09-09T04:43:29;100523.47;;;15.72;100.00
21111;BME280;10713;51.912;4.494;2022-09-09T04:45:56;100519.56;;;15.63;100.00
21111;BME280;10713;51.912;4.494;2022-09-09T04:48:22;100528.16;;;15.68;100.00
21111;BME280;10713;51.912;4.494;2022-09-09T04:51:04;100520.50;;;15.62;100.00
21111;BME280;10713;51.912;4.494;2022-09-09T04:53:30;100517.41;;;15.55;100.00
21111;BME280;10713;51.912;4.494;2022-09-09T04:58:28;100522.91;;;15.52;100.00
21111;BME280;10713;51.912;4.494;2022-09-09T05:00:54;100521.31;;;15.50;100.00
21111;BME280;10713;51.912;4.494;2022-09-09T05:03:19;100511.31;;;15.53;100.00
21111;BME280;10713;51.912;4.494;2022-09-09T05:05:44;100521.06;;;15.67;100.00
21111;BME280;10713;51.912;4.494;2022-09-09T05:08:10;100517.13;;;15.60;100.00
21111;BME280;10713;51.912;4.494;2022-09-09T05:10:37;100515.59;;;15.56;100.00
21111;BME280;10713;51.912;4.494;2022-09-09T05:13:03;100514.22;;;15.77;100.00
21111;BME280;10713;51.912;4.494;2022-09-09T05:15:29;100508.69;;;15.81;100.00
21111;BME280;10713;51.912;4.494;2022-09-09T05:17:59;100506.31;;;15.76;100.00
21111;BME280;10713;51.912;4.494;2022-09-09T05:20:26;100506.59;;;15.86;100.00
21111;BME280;10713;51.912;4.494;2022-09-09T05:22:55;100497.00;;;15.83;100.00
21111;BME280;10713;51.912;4.494;2022-09-09T05:25:21;100507.19;;;15.76;100.00
21111;BME280;10713;51.912;4.494;2022-09-09T05:27:47;100503.81;;;15.60;100.00
21111;BME280;10713;51.912;4.494;2022-09-09T05:30:13;100506.31;;;15.49;100.00
21111;BME280;10713;51.912;4.494;2022-09-09T05:32:39;100511.31;;;15.53;100.00
21111;BME280;10713;51.912;4.494;2022-09-09T05:35:05;100513.88;;;15.69;100.00
21111;BME280;10713;51.912;4.494;2022-09-09T05:37:31;100515.91;;;15.79;100.00
21111;BME280;10713;51.912;4.494;2022-09-09T05:39:56;100509.78;;;15.91;100.00
21111;BME280;10713;51.912;4.494;2022-09-09T05:42:23;100516.00;;;16.04;100.00
21111;BME280;10713;51.912;4.494;2022-09-09T05:44:48;100510.50;;;16.20;100.00
21111;BME280;10713;51.912;4.494;2022-09-09T05:47:15;100514.34;;;16.41;100.00
21111;BME280;10713;51.912;4.494;2022-09-09T05:49:40;100526.19;;;16.76;100.00
21111;BME280;10713;51.912;4.494;2022-09-09T05:52:05;100509.59;;;17.22;100.00
21111;BME280;10713;51.912;4.494;2022-09-09T05:54:31;100507.31;;;17.41;100.00
21111;BME280;10713;51.912;4.494;2022-09-09T05:56:57;100504.75;;;17.64;100.00
21111;BME280;10713;51.912;4.494;2022-09-09T05:59:23;100496.13;;;18.19;100.00
21111;BME280;10713;51.912;4.494;2022-09-09T06:01:48;100497.63;;;18.35;100.00
21111;BME280;10713;51.912;4.494;2022-09-09T06:04:14;100492.63;;;18.30;100.00
21111;BME280;10713;51.912;4.494;2022-09-09T06:06:40;100495.22;;;17.96;100.00
21111;BME280;10713;51.912;4.494;2022-09-09T06:09:08;100499.56;;;17.73;100.00
21111;BME280;10713;51.912;4.494;2022-09-09T06:11:36;100497.38;;;17.43;100.00
21111;BME280;10713;51.912;4.494;2022-09-09T06:14:03;100509.16;;;17.28;100.00
21111;BME280;10713;51.912;4.494;2022-09-09T06:16:30;100502.59;;;17.08;100.00
21111;BME280;10713;51.912;4.494;2022-09-09T06:18:58;100506.53;;;17.02;100.00
21111;BME280;10713;51.912;4.494;2022-09-09T06:21:28;100510.59;;;17.08;100.00
21111;BME280;10713;51.912;4.494;2022-09-09T06:23:55;100514.34;;;17.05;100.00
21111;BME280;10713;51.912;4.494;2022-09-09T06:26:32;100510.28;;;17.13;100.00
21111;BME280;10713;51.912;4.494;2022-09-09T06:28:58;100514.75;;;16.99;100.00
21111;BME280;10713;51.912;4.494;2022-09-09T06:31:26;100520.53;;;16.93;100.00
21111;BME280;10713;51.912;4.494;2022-09-09T06:33:55;100501.25;;;16.89;100.00
21111;BME280;10713;51.912;4.494;2022-09-09T06:36:33;100516.28;;;16.91;100.00
21111;BME280;10713;51.912;4.494;2022-09-09T06:38:59;100527.06;;;16.89;100.00
21111;BME280;10713;51.912;4.494;2022-09-09T06:41:27;100512.22;;;16.98;100.00
21111;BME280;10713;51.912;4.494;2022-09-09T06:43:52;100520.75;;;17.03;100.00
21111;BME280;10713;51.912;4.494;2022-09-09T06:46:19;100519.63;;;17.18;100.00
21111;BME280;10713;51.912;4.494;2022-09-09T06:48:45;100505.78;;;17.13;100.00
21111;BME280;10713;51.912;4.494;2022-09-09T06:51:16;100510.88;;;17.16;100.00
21111;BME280;10713;51.912;4.494;2022-09-09T06:53:44;100516.66;;;17.23;100.00
21111;BME280;10713;51.912;4.494;2022-09-09T06:58:39;100506.31;;;17.18;100.00
21111;BME280;10713;51.912;4.494;2022-09-09T07:01:08;100520.97;;;17.37;100.00
21111;BME280;10713;51.912;4.494;2022-09-09T07:03:33;100513.75;;;17.26;100.00
21111;BME280;10713;51.912;4.494;2022-09-09T07:05:59;100502.16;;;17.14;100.00
21111;BME280;10713;51.912;4.494;2022-09-09T07:08:25;100510.75;;;17.30;100.00
21111;BME280;10713;51.912;4.494;2022-09-09T07:10:51;100508.97;;;17.18;100.00
21111;BME280;10713;51.912;4.494;2022-09-09T07:13:23;100508.03;;;17.06;100.00
21111;BME280;10713;51.912;4.494;2022-09-09T07:15:50;100506.22;;;17.07;100.00
21111;BME280;10713;51.912;4.494;2022-09-09T07:18:16;100504.09;;;16.99;100.00
21111;BME280;10713;51.912;4.494;2022-09-09T07:20:41;100514.13;;;16.96;100.00
21111;BME280;10713;51.912;4.494;2022-09-09T07:23:07;100513.06;;;16.98;100.00
21111;BME280;10713;51.912;4.494;2022-09-09T07:25:32;100505.16;;;17.46;100.00
21111;BME280;10713;51.912;4.494;2022-09-09T07:27:57;100499.66;;;17.61;100.00
21111;BME280;10713;51.912;4.494;2022-09-09T07:30:23;100496.72;;;17.40;100.00
21111;BME280;10713;51.912;4.494;2022-09-09T07:32:51;100501.97;;;17.41;100.00
21111;BME280;10713;51.912;4.494;2022-09-09T07:35:16;100501.03;;;17.05;100.00
21111;BME280;10713;51.912;4.494;2022-09-09T07:37:42;100508.50;;;17.00;100.00
21111;BME280;10713;51.912;4.494;2022-09-09T07:40:07;100513.59;;;16.91;100.00
21111;BME280;10713;51.912;4.494;2022-09-09T07:42:33;100513.09;;;16.85;100.00
21111;BME280;10713;51.912;4.494;2022-09-09T07:44:59;100520.00;;;16.88;100.00
21111;BME280;10713;51.912;4.494;2022-09-09T07:47:24;100519.69;;;16.93;100.00
21111;BME280;10713;51.912;4.494;2022-09-09T07:49:50;100525.88;;;16.93;100.00
21111;BME280;10713;51.912;4.494;2022-09-09T07:52:15;100515.19;;;16.93;100.00
21111;BME280;10713;51.912;4.494;2022-09-09T07:54:41;100515.19;;;17.06;100.00
21111;BME280;10713;51.912;4.494;2022-09-09T07:57:07;100516.34;;;17.15;100.00
21111;BME280;10713;51.912;4.494;2022-09-09T07:59:32;100513.38;;;17.06;100.00
21111;BME280;10713;51.912;4.494;2022-09-09T08:01:58;100510.28;;;17.13;100.00
21111;BME280;10713;51.912;4.494;2022-09-09T08:04:25;100511.72;;;17.17;100.00
21111;BME280;10713;51.912;4.494;2022-09-09T08:06:58;100511.31;;;17.23;100.00
21111;BME280;10713;51.912;4.494;2022-09-09T08:09:24;100513.00;;;17.24;100.00
21111;BME280;10713;51.912;4.494;2022-09-09T08:11:52;100514.94;;;17.22;100.00
21111;BME280;10713;51.912;4.494;2022-09-09T08:14:17;100511.09;;;17.26;100.00
21111;BME280;10713;51.912;4.494;2022-09-09T08:16:45;100518.75;;;17.30;100.00
21111;BME280;10713;51.912;4.494;2022-09-09T08:19:11;100516.16;;;17.42;100.00
21111;BME280;10713;51.912;4.494;2022-09-09T08:21:38;100522.75;;;17.49;100.00
21111;BME280;10713;51.912;4.494;2022-09-09T08:24:05;100514.00;;;17.47;100.00
21111;BME280;10713;51.912;4.494;2022-09-09T08:26:36;100510.34;;;17.48;100.00
21111;BME280;10713;51.912;4.494;2022-09-09T08:29:04;100519.25;;;17.48;100.00
21111;BME280;10713;51.912;4.494;2022-09-09T08:31:38;100519.41;;;17.34;100.00
21111;BME280;10713;51.912;4.494;2022-09-09T08:34:05;100520.78;;;17.27;100.00
21111;BME280;10713;51.912;4.494;2022-09-09T08:36:33;100518.13;;;17.27;100.00
21111;BME280;10713;51.912;4.494;2022-09-09T08:39:00;100528.03;;;17.25;100.00
21111;BME280;10713;51.912;4.494;2022-09-09T08:44:23;100530.13;;;17.08;100.00
21111;BME280;10713;51.912;4.494;2022-09-09T08:49:44;100522.00;;;17.23;100.00
21111;BME280;10713;51.912;4.494;2022-09-09T08:52:17;100530.94;;;17.22;100.00
21111;BME280;10713;51.912;4.494;2022-09-09T08:54:44;100528.78;;;17.27;100.00
21111;BME280;10713;51.912;4.494;2022-09-09T08:57:20;100525.16;;;17.28;100.00
21111;BME280;10713;51.912;4.494;2022-09-09T08:59:47;100534.44;;;17.35;100.00
21111;BME280;10713;51.912;4.494;2022-09-09T09:08:26;100527.03;;;17.51;100.00
21111;BME280;10713;51.912;4.494;2022-09-09T09:10:56;100533.88;;;17.43;100.00
21111;BME280;10713;51.912;4.494;2022-09-09T09:16:30;100541.38;;;17.62;100.00
21111;BME280;10713;51.912;4.494;2022-09-09T09:18:58;100522.31;;;17.55;100.00
21111;BME280;10713;51.912;4.494;2022-09-09T09:21:36;100547.50;;;17.51;100.00
21111;BME280;10713;51.912;4.494;2022-09-09T09:24:11;100529.91;;;17.48;100.00
21111;BME280;10713;51.912;4.494;2022-09-09T09:26:42;100539.38;;;17.52;100.00
21111;BME280;10713;51.912;4.494;2022-09-09T09:29:14;100538.03;;;17.47;100.00
21111;BME280;10713;51.912;4.494;2022-09-09T09:31:52;100544.09;;;17.49;100.00
21111;BME280;10713;51.912;4.494;2022-09-09T09:34:19;100525.28;;;17.26;100.00
21111;BME280;10713;51.912;4.494;2022-09-09T09:36:58;100537.28;;;17.45;100.00
21111;BME280;10713;51.912;4.494;2022-09-09T09:39:29;100525.53;;;17.47;100.00
21111;BME280;10713;51.912;4.494;2022-09-09T09:41:55;100527.41;;;17.58;100.00
21111;BME280;10713;51.912;4.494;2022-09-09T09:46:50;100524.94;;;18.27;100.00
21111;BME280;10713;51.912;4.494;2022-09-09T09:49:15;100518.16;;;18.45;100.00
21111;BME280;10713;51.912;4.494;2022-09-09T09:51:42;100510.41;;;18.54;100.00
21111;BME280;10713;51.912;4.494;2022-09-09T09:54:18;100511.16;;;18.67;100.00
21111;BME280;10713;51.912;4.494;2022-09-09T09:56:48;100518.84;;;18.72;100.00
21111;BME280;10713;51.912;4.494;2022-09-09T10:01:54;100498.38;;;18.59;100.00
21111;BME280;10713;51.912;4.494;2022-09-09T10:04:22;100501.78;;;18.50;100.00
21111;BME280;10713;51.912;4.494;2022-09-09T10:06:49;100522.41;;;18.37;100.00
21111;BME280;10713;51.912;4.494;2022-09-09T10:09:33;100524.09;;;18.27;100.00
21111;BME280;10713;51.912;4.494;2022-09-09T10:12:35;100520.59;;;18.02;100.00
21111;BME280;10713;51.912;4.494;2022-09-09T10:20:48;100543.47;;;18.06;100.00
21111;BME280;10713;51.912;4.494;2022-09-09T10:29:12;100533.66;;;18.18;100.00
21111;BME280;10713;51.912;4.494;2022-09-09T10:32:02;100536.84;;;18.23;100.00
21111;BME280;10713;51.912;4.494;2022-09-09T10:34:55;100539.66;;;18.33;100.00
21111;BME280;10713;51.912;4.494;2022-09-09T10:40:20;100535.19;;;18.56;100.00
21111;BME280;10713;51.912;4.494;2022-09-09T10:42:43;100537.78;;;18.22;100.00
21111;BME280;10713;51.912;4.494;2022-09-09T10:55:56;100547.78;;;17.22;100.00
21111;BME280;10713;51.912;4.494;2022-09-09T10:58:29;100548.34;;;17.15;100.00
21111;BME280;10713;51.912;4.494;2022-09-09T11:01:01;100549.81;;;17.31;100.00
21111;BME280;10713;51.912;4.494;2022-09-09T11:03:30;100542.75;;;17.43;100.00
21111;BME280;10713;51.912;4.494;2022-09-09T11:08:30;100544.81;;;17.88;100.00
21111;BME280;10713;51.912;4.494;2022-09-09T11:13:55;100546.97;;;18.53;100.00
21111;BME280;10713;51.912;4.494;2022-09-09T11:21:49;100542.97;;;18.48;100.00
21111;BME280;10713;51.912;4.494;2022-09-09T11:24:42;100548.06;;;18.51;100.00
21111;BME280;10713;51.912;4.494;2022-09-09T11:27:27;100551.25;;;18.56;100.00
21111;BME280;10713;51.912;4.494;2022-09-09T11:30:14;100540.53;;;18.44;100.00
21111;BME280;10713;51.912;4.494;2022-09-09T11:38:52;100552.72;;;18.24;100.00
21111;BME280;10713;51.912;4.494;2022-09-09T11:41:19;100560.09;;;18.10;100.00
21111;BME280;10713;51.912;4.494;2022-09-09T11:43:49;100554.25;;;18.05;100.00
21111;BME280;10713;51.912;4.494;2022-09-09T11:46:19;100557.59;;;17.95;100.00
21111;BME280;10713;51.912;4.494;2022-09-09T11:48:57;100561.34;;;17.93;100.00
21111;BME280;10713;51.912;4.494;2022-09-09T11:56:34;100563.69;;;17.97;100.00
21111;BME280;10713;51.912;4.494;2022-09-09T12:02:00;100557.59;;;17.95;100.00
21111;BME280;10713;51.912;4.494;2022-09-09T12:06:58;100579.13;;;17.81;100.00
21111;BME280;10713;51.912;4.494;2022-09-09T12:09:46;100582.88;;;17.78;100.00
21111;BME280;10713;51.912;4.494;2022-09-09T12:17:29;100559.59;;;17.81;100.00
21111;BME280;10713;51.912;4.494;2022-09-09T12:20:14;100563.63;;;17.86;100.00
21111;BME280;10713;51.912;4.494;2022-09-09T12:31:17;100565.97;;;18.73;100.00
21111;BME280;10713;51.912;4.494;2022-09-09T12:33:47;100576.91;;;18.69;100.00
21111;BME280;10713;51.912;4.494;2022-09-09T12:36:28;100574.56;;;18.65;100.00
21111;BME280;10713;51.912;4.494;2022-09-09T12:38:57;100574.31;;;18.57;100.00
21111;BME280;10713;51.912;4.494;2022-09-09T12:41:26;100574.94;;;18.49;100.00
21111;BME280;10713;51.912;4.494;2022-09-09T12:44:06;100573.91;;;18.39;100.00
21111;BME280;10713;51.912;4.494;2022-09-09T12:46:45;100579.56;;;18.58;100.00
21111;BME280;10713;51.912;4.494;2022-09-09T12:51:49;100570.53;;;18.48;100.00
21111;BME280;10713;51.912;4.494;2022-09-09T12:54:14;100571.50;;;18.47;100.00
21111;BME280;10713;51.912;4.494;2022-09-09T12:56:45;100565.69;;;18.53;100.00
21111;BME280;10713;51.912;4.494;2022-09-09T12:59:23;100558.16;;;18.47;100.00
21111;BME280;10713;51.912;4.494;2022-09-09T13:01:58;100579.41;;;18.37;100.00
21111;BME280;10713;51.912;4.494;2022-09-09T13:04:23;100579.28;;;18.50;100.00
21111;BME280;10713;51.912;4.494;2022-09-09T13:06:49;100580.19;;;18.73;100.00
21111;BME280;10713;51.912;4.494;2022-09-09T13:09:14;100571.97;;;18.87;100.00
21111;BME280;10713;51.912;4.494;2022-09-09T13:11:50;100574.31;;;19.15;100.00
21111;BME280;10713;51.912;4.494;2022-09-09T13:14:22;100568.78;;;19.61;100.00
21111;BME280;10713;51.912;4.494;2022-09-09T13:16:56;100575.47;;;19.55;100.00
21111;BME280;10713;51.912;4.494;2022-09-09T13:19:22;100583.28;;;19.70;100.00
21111;BME280;10713;51.912;4.494;2022-09-09T13:21:51;100595.81;;;19.69;100.00
21111;BME280;10713;51.912;4.494;2022-09-09T13:24:34;100596.75;;;20.44;100.00
21111;BME280;10713;51.912;4.494;2022-09-09T13:27:03;100590.03;;;20.50;100.00
21111;BME280;10713;51.912;4.494;2022-09-09T13:29:30;100590.00;;;20.61;100.00
21111;BME280;10713;51.912;4.494;2022-09-09T13:32:15;100582.34;;;20.56;100.00
21111;BME280;10713;51.912;4.494;2022-09-09T13:34:59;100582.22;;;20.58;100.00
21111;BME280;10713;51.912;4.494;2022-09-09T13:37:35;100588.13;;;20.40;100.00
21111;BME280;10713;51.912;4.494;2022-09-09T13:40:02;100586.81;;;20.35;100.00
21111;BME280;10713;51.912;4.494;2022-09-09T13:42:29;100617.72;;;20.18;100.00
21111;BME280;10713;51.912;4.494;2022-09-09T13:44:57;100595.41;;;19.74;100.00
21111;BME280;10713;51.912;4.494;2022-09-09T13:47:31;100610.66;;;19.17;100.00
21111;BME280;10713;51.912;4.494;2022-09-09T13:49:58;100606.03;;;19.19;100.00
21111;BME280;10713;51.912;4.494;2022-09-09T13:52:24;100604.94;;;19.10;100.00
21111;BME280;10713;51.912;4.494;2022-09-09T13:54:52;100588.28;;;19.07;100.00
21111;BME280;10713;51.912;4.494;2022-09-09T13:57:23;100595.22;;;18.98;100.00
21111;BME280;10713;51.912;4.494;2022-09-09T13:59:51;100592.16;;;18.80;100.00
21111;BME280;10713;51.912;4.494;2022-09-09T14:02:17;100586.81;;;18.92;100.00
21111;BME280;10713;51.912;4.494;2022-09-09T14:04:44;100586.72;;;19.27;100.00
21111;BME280;10713;51.912;4.494;2022-09-09T14:07:14;100589.50;;;18.92;100.00
21111;BME280;10713;51.912;4.494;2022-09-09T14:09:40;100578.06;;;18.89;100.00
21111;BME280;10713;51.912;4.494;2022-09-09T14:12:10;100587.78;;;18.90;100.00
21111;BME280;10713;51.912;4.494;2022-09-09T14:14:36;100585.31;;;18.76;100.00
21111;BME280;10713;51.912;4.494;2022-09-09T14:17:01;100586.63;;;18.71;100.00
21111;BME280;10713;51.912;4.494;2022-09-09T14:19:26;100591.38;;;18.67;100.00
21111;BME280;10713;51.912;4.494;2022-09-09T14:21:52;100598.16;;;18.71;100.00
21111;BME280;10713;51.912;4.494;2022-09-09T14:24:17;100602.34;;;18.75;100.00
21111;BME280;10713;51.912;4.494;2022-09-09T14:26:42;100590.19;;;19.61;100.00
21111;BME280;10713;51.912;4.494;2022-09-09T14:29:08;100575.31;;;19.79;100.00
21111;BME280;10713;51.912;4.494;2022-09-09T14:31:33;100580.44;;;19.83;100.00
21111;BME280;10713;51.912;4.494;2022-09-09T14:33:59;100582.34;;;20.03;100.00
21111;BME280;10713;51.912;4.494;2022-09-09T14:36:24;100584.13;;;20.02;100.00
21111;BME280;10713;51.912;4.494;2022-09-09T14:38:50;100582.03;;;20.17;100.00
21111;BME280;10713;51.912;4.494;2022-09-09T14:41:18;100592.16;;;19.70;100.00
21111;BME280;10713;51.912;4.494;2022-09-09T14:43:45;100602.75;;;19.72;100.00
21111;BME280;10713;51.912;4.494;2022-09-09T14:46:13;100605.63;;;20.56;100.00
21111;BME280;10713;51.912;4.494;2022-09-09T14:48:38;100593.13;;;20.87;100.00
21111;BME280;10713;51.912;4.494;2022-09-09T14:51:11;100585.94;;;21.18;100.00
21111;BME280;10713;51.912;4.494;2022-09-09T14:53:38;100584.09;;;21.49;100.00
21111;BME280;10713;51.912;4.494;2022-09-09T14:56:17;100583.09;;;21.60;100.00
21111;BME280;10713;51.912;4.494;2022-09-09T14:58:44;100591.09;;;21.81;100.00
21111;BME280;10713;51.912;4.494;2022-09-09T15:01:12;100595.91;;;21.87;100.00
21111;BME280;10713;51.912;4.494;2022-09-09T15:03:39;100593.94;;;21.89;100.00
21111;BME280;10713;51.912;4.494;2022-09-09T15:06:07;100588.97;;;21.85;100.00
21111;BME280;10713;51.912;4.494;2022-09-09T15:08:37;100601.84;;;21.81;100.00
21111;BME280;10713;51.912;4.494;2022-09-09T15:11:04;100594.78;;;21.90;100.00
21111;BME280;10713;51.912;4.494;2022-09-09T15:13:30;100594.34;;;21.94;100.00